sensor_id;sensor_type;location;lat;lon;timestamp;temperature;humidity
24250;DHT22;12379;49.820;8.648;2023-04-24T00:00:01;12.90;99.90
24250;DHT22;12379;49.820;8.648;2023-04-24T00:02:26;12.90;99.90
24250;DHT22;12379;49.820;8.648;2023-04-24T00:04:52;12.80;99.90
24250;DHT22;12379;49.820;8.648;2023-04-24T00:07:17;12.90;99.90
24250;DHT22;12379;49.820;8.648;2023-04-24T00:09:45;12.90;99.90
24250;DHT22;12379;49.820;8.648;2023-04-24T00:12:11;12.90;99.90
24250;DHT22;12379;49.820;8.648;2023-04-24T00:14:36;13.00;99.90
24250;DHT22;12379;49.820;8.648;2023-04-24T00:17:02;12.90;99.90
24250;DHT22;12379;49.820;8.648;2023-04-24T00:19:28;12.90;99.90
24250;DHT22;12379;49.820;8.648;2023-04-24T00:21:55;12.90;99.90
24250;DHT22;12379;49.820;8.648;2023-04-24T00:24:21;12.90;99.90
24250;DHT22;12379;49.820;8.648;2023-04-24T00:26:47;12.90;99.90
24250;DHT22;12379;49.820;8.648;2023-04-24T00:29:12;12.90;99.90
24250;DHT22;12379;49.820;8.648;2023-04-24T00:31:38;12.90;99.90
24250;DHT22;12379;49.820;8.648;2023-04-24T00:34:04;12.90;99.90
24250;DHT22;12379;49.820;8.648;2023-04-24T00:36:30;12.90;99.90
24250;DHT22;12379;49.820;8.648;2023-04-24T00:38:57;12.90;99.90
24250;DHT22;12379;49.820;8.648;2023-04-24T00:41:24;12.90;99.90
24250;DHT22;12379;49.820;8.648;2023-04-24T00:43:50;12.90;99.90
24250;DHT22;12379;49.820;8.648;2023-04-24T00:46:16;12.90;99.90
24250;DHT22;12379;49.820;8.648;2023-04-24T00:48:43;12.90;99.90
24250;DHT22;12379;49.820;8.648;2023-04-24T00:51:08;12.80;99.90
24250;DHT22;12379;49.820;8.648;2023-04-24T00:53:34;12.70;99.90
24250;DHT22;12379;49.820;8.648;2023-04-24T00:56:00;12.70;99.90
24250;DHT22;12379;49.820;8.648;2023-04-24T00:58:26;12.60;99.90
24250;DHT22;12379;49.820;8.648;2023-04-24T01:00:52;12.60;99.90
24250;DHT22;12379;49.820;8.648;2023-04-24T01:03:25;12.70;99.90
24250;DHT22;12379;49.820;8.648;2023-04-24T01:05:52;12.70;99.90
24250;DHT22;12379;49.820;8.648;2023-04-24T01:08:18;12.70;99.90
24250;DHT22;12379;49.820;8.648;2023-04-24T01:10:46;12.70;99.90
24250;DHT22;12379;49.820;8.648;2023-04-24T01:13:13;12.60;99.90
24250;DHT22;12379;49.820;8.648;2023-04-24T01:15:38;12.50;99.90
24250;DHT22;12379;49.820;8.648;2023-04-24T01:18:04;12.50;99.90
24250;DHT22;12379;49.820;8.648;2023-04-24T01:20:30;12.40;99.90
24250;DHT22;12379;49.820;8.648;2023-04-24T01:22:57;12.40;99.90
24250;DHT22;12379;49.820;8.648;2023-04-24T01:25:23;12.40;99.90
24250;DHT22;12379;49.820;8.648;2023-04-24T01:27:49;12.30;99.90
24250;DHT22;12379;49.820;8.648;2023-04-24T01:30:15;12.30;99.90
24250;DHT22;12379;49.820;8.648;2023-04-24T01:32:41;12.30;99.90
24250;DHT22;12379;49.820;8.648;2023-04-24T01:35:09;12.50;99.90
24250;DHT22;12379;49.820;8.648;2023-04-24T01:37:35;12.50;99.90
24250;DHT22;12379;49.820;8.648;2023-04-24T01:40:03;12.40;99.90
24250;DHT22;12379;49.820;8.648;2023-04-24T01:42:29;12.30;99.90
24250;DHT22;12379;49.820;8.648;2023-04-24T01:44:55;12.30;99.90
24250;DHT22;12379;49.820;8.648;2023-04-24T01:47:22;12.30;99.90
24250;DHT22;12379;49.820;8.648;2023-04-24T01:49:48;12.40;99.90
24250;DHT22;12379;49.820;8.648;2023-04-24T01:52:15;12.40;99.90
24250;DHT22;12379;49.820;8.648;2023-04-24T01:54:41;12.40;99.90
24250;DHT22;12379;49.820;8.648;2023-04-24T01:57:07;12.50;99.90
24250;DHT22;12379;49.820;8.648;2023-04-24T01:59:33;12.60;99.90
24250;DHT22;12379;49.820;8.648;2023-04-24T02:01:59;12.60;99.90
24250;DHT22;12379;49.820;8.648;2023-04-24T02:04:25;12.60;99.90
24250;DHT22;12379;49.820;8.648;2023-04-24T02:06:51;12.50;99.90
24250;DHT22;12379;49.820;8.648;2023-04-24T02:09:16;12.50;99.90
24250;DHT22;12379;49.820;8.648;2023-04-24T02:11:42;12.50;99.90
24250;DHT22;12379;49.820;8.648;2023-04-24T02:14:07;12.50;99.90
24250;DHT22;12379;49.820;8.648;2023-04-24T02:16:33;12.60;99.90
24250;DHT22;12379;49.820;8.648;2023-04-24T02:19:02;12.50;99.90
24250;DHT22;12379;49.820;8.648;2023-04-24T02:21:27;12.50;99.90
24250;DHT22;12379;49.820;8.648;2023-04-24T02:23:53;12.40;99.90
24250;DHT22;12379;49.820;8.648;2023-04-24T02:26:19;12.50;99.90
24250;DHT22;12379;49.820;8.648;2023-04-24T02:28:45;12.60;99.90
24250;DHT22;12379;49.820;8.648;2023-04-24T02:31:10;12.40;99.90
24250;DHT22;12379;49.820;8.648;2023-04-24T02:33:36;12.40;99.90
24250;DHT22;12379;49.820;8.648;2023-04-24T02:36:02;12.40;99.90
24250;DHT22;12379;49.820;8.648;2023-04-24T02:38:28;12.50;99.90
24250;DHT22;12379;49.820;8.648;2023-04-24T02:40:54;12.40;99.90
24250;DHT22;12379;49.820;8.648;2023-04-24T02:43:20;12.20;99.90
24250;DHT22;12379;49.820;8.648;2023-04-24T02:45:46;12.10;99.90
24250;DHT22;12379;49.820;8.648;2023-04-24T02:48:11;12.10;99.90
24250;DHT22;12379;49.820;8.648;2023-04-24T02:50:37;12.00;99.90
24250;DHT22;12379;49.820;8.648;2023-04-24T02:53:02;12.10;99.90
24250;DHT22;12379;49.820;8.648;2023-04-24T02:55:28;12.10;99.90
24250;DHT22;12379;49.820;8.648;2023-04-24T02:57:54;12.00;99.90
24250;DHT22;12379;49.820;8.648;2023-04-24T03:00:20;12.00;99.90
24250;DHT22;12379;49.820;8.648;2023-04-24T03:02:45;12.10;99.90
24250;DHT22;12379;49.820;8.648;2023-04-24T03:05:11;12.00;99.90
24250;DHT22;12379;49.820;8.648;2023-04-24T03:07:37;11.90;99.90
24250;DHT22;12379;49.820;8.648;2023-04-24T03:10:04;11.90;99.90
24250;DHT22;12379;49.820;8.648;2023-04-24T03:12:31;11.90;99.90
24250;DHT22;12379;49.820;8.648;2023-04-24T03:14:56;11.90;99.90
24250;DHT22;12379;49.820;8.648;2023-04-24T03:17:22;11.80;99.90
24250;DHT22;12379;49.820;8.648;2023-04-24T03:19:47;11.80;99.90
24250;DHT22;12379;49.820;8.648;2023-04-24T03:22:13;11.80;99.90
24250;DHT22;12379;49.820;8.648;2023-04-24T03:24:38;11.70;99.90
24250;DHT22;12379;49.820;8.648;2023-04-24T03:27:04;11.50;99.90
24250;DHT22;12379;49.820;8.648;2023-04-24T03:29:30;11.40;99.90
24250;DHT22;12379;49.820;8.648;2023-04-24T03:31:55;11.50;99.90
24250;DHT22;12379;49.820;8.648;2023-04-24T03:34:21;11.30;99.90
24250;DHT22;12379;49.820;8.648;2023-04-24T03:36:46;11.10;99.90
24250;DHT22;12379;49.820;8.648;2023-04-24T03:39:15;11.20;99.90
24250;DHT22;12379;49.820;8.648;2023-04-24T03:41:41;11.20;99.90
24250;DHT22;12379;49.820;8.648;2023-04-24T03:44:06;11.20;99.90
24250;DHT22;12379;49.820;8.648;2023-04-24T03:46:32;11.20;99.90
24250;DHT22;12379;49.820;8.648;2023-04-24T03:48:57;11.20;99.90
24250;DHT22;12379;49.820;8.648;2023-04-24T03:51:23;11.20;99.90
24250;DHT22;12379;49.820;8.648;2023-04-24T03:53:49;11.10;99.90
24250;DHT22;12379;49.820;8.648;2023-04-24T03:56:15;11.20;99.90
24250;DHT22;12379;49.820;8.648;2023-04-24T03:58:40;11.20;99.90
24250;DHT22;12379;49.820;8.648;2023-04-24T04:01:06;11.20;99.90
24250;DHT22;12379;49.820;8.648;2023-04-24T04:03:31;11.10;99.90
24250;DHT22;12379;49.820;8.648;2023-04-24T04:05:57;11.00;99.90
24250;DHT22;12379;49.820;8.648;2023-04-24T04:08:22;10.90;99.90
24250;DHT22;12379;49.820;8.648;2023-04-24T04:10:48;10.90;99.90
24250;DHT22;12379;49.820;8.648;2023-04-24T04:13:13;10.90;99.90
24250;DHT22;12379;49.820;8.648;2023-04-24T04:15:39;10.80;99.90
24250;DHT22;12379;49.820;8.648;2023-04-24T04:18:05;10.70;99.90
24250;DHT22;12379;49.820;8.648;2023-04-24T04:20:31;10.60;99.90
24250;DHT22;12379;49.820;8.648;2023-04-24T04:22:56;10.60;99.90
24250;DHT22;12379;49.820;8.648;2023-04-24T04:25:22;10.50;99.90
24250;DHT22;12379;49.820;8.648;2023-04-24T04:27:48;10.50;99.90
24250;DHT22;12379;49.820;8.648;2023-04-24T04:30:14;10.40;99.90
24250;DHT22;12379;49.820;8.648;2023-04-24T04:32:39;10.30;99.90
24250;DHT22;12379;49.820;8.648;2023-04-24T04:35:05;10.30;99.90
24250;DHT22;12379;49.820;8.648;2023-04-24T04:37:32;10.20;99.90
24250;DHT22;12379;49.820;8.648;2023-04-24T04:40:02;10.30;99.90
24250;DHT22;12379;49.820;8.648;2023-04-24T04:42:32;10.30;99.90
24250;DHT22;12379;49.820;8.648;2023-04-24T04:44:59;10.30;99.90
24250;DHT22;12379;49.820;8.648;2023-04-24T04:47:26;10.30;99.90
24250;DHT22;12379;49.820;8.648;2023-04-24T04:49:52;10.20;99.90
24250;DHT22;12379;49.820;8.648;2023-04-24T04:52:18;10.30;99.90
24250;DHT22;12379;49.820;8.648;2023-04-24T04:54:44;10.30;99.90
24250;DHT22;12379;49.820;8.648;2023-04-24T04:57:10;10.30;99.90
24250;DHT22;12379;49.820;8.648;2023-04-24T04:59:36;10.30;99.90
24250;DHT22;12379;49.820;8.648;2023-04-24T05:02:02;10.30;99.90
24250;DHT22;12379;49.820;8.648;2023-04-24T05:04:28;10.30;99.90
24250;DHT22;12379;49.820;8.648;2023-04-24T05:06:53;10.50;99.90
24250;DHT22;12379;49.820;8.648;2023-04-24T05:09:19;10.40;99.90
24250;DHT22;12379;49.820;8.648;2023-04-24T05:11:44;10.30;99.90
24250;DHT22;12379;49.820;8.648;2023-04-24T05:14:10;10.40;99.90
24250;DHT22;12379;49.820;8.648;2023-04-24T05:16:37;10.30;99.90
24250;DHT22;12379;49.820;8.648;2023-04-24T05:19:03;10.40;99.90
24250;DHT22;12379;49.820;8.648;2023-04-24T05:21:29;10.60;99.90
24250;DHT22;12379;49.820;8.648;2023-04-24T05:23:54;10.70;99.90
24250;DHT22;12379;49.820;8.648;2023-04-24T05:26:20;10.90;99.90
24250;DHT22;12379;49.820;8.648;2023-04-24T05:28:46;10.90;99.90
24250;DHT22;12379;49.820;8.648;2023-04-24T05:31:11;10.90;99.90
24250;DHT22;12379;49.820;8.648;2023-04-24T05:33:37;11.00;99.90
24250;DHT22;12379;49.820;8.648;2023-04-24T05:36:03;10.80;99.90
24250;DHT22;12379;49.820;8.648;2023-04-24T05:38:30;10.80;99.90
24250;DHT22;12379;49.820;8.648;2023-04-24T05:40:56;11.10;99.90
24250;DHT22;12379;49.820;8.648;2023-04-24T05:43:22;11.30;99.90
24250;DHT22;12379;49.820;8.648;2023-04-24T05:45:47;11.40;99.90
24250;DHT22;12379;49.820;8.648;2023-04-24T05:48:13;11.40;99.90
24250;DHT22;12379;49.820;8.648;2023-04-24T05:50:38;11.40;99.90
24250;DHT22;12379;49.820;8.648;2023-04-24T05:53:04;11.40;99.90
24250;DHT22;12379;49.820;8.648;2023-04-24T05:55:31;11.40;99.90
24250;DHT22;12379;49.820;8.648;2023-04-24T05:57:56;11.60;99.90
24250;DHT22;12379;49.820;8.648;2023-04-24T06:00:23;11.50;99.90
24250;DHT22;12379;49.820;8.648;2023-04-24T06:02:49;11.70;99.90
24250;DHT22;12379;49.820;8.648;2023-04-24T06:05:14;11.60;99.90
24250;DHT22;12379;49.820;8.648;2023-04-24T06:07:40;11.60;99.90
24250;DHT22;12379;49.820;8.648;2023-04-24T06:10:06;11.60;99.90
24250;DHT22;12379;49.820;8.648;2023-04-24T06:12:32;11.80;99.90
24250;DHT22;12379;49.820;8.648;2023-04-24T06:14:57;11.70;99.90
24250;DHT22;12379;49.820;8.648;2023-04-24T06:17:23;11.50;99.90
24250;DHT22;12379;49.820;8.648;2023-04-24T06:19:48;11.50;99.90
24250;DHT22;12379;49.820;8.648;2023-04-24T06:22:14;11.60;99.90
24250;DHT22;12379;49.820;8.648;2023-04-24T06:24:40;11.80;99.90
24250;DHT22;12379;49.820;8.648;2023-04-24T06:27:06;11.80;99.90
24250;DHT22;12379;49.820;8.648;2023-04-24T06:29:33;11.80;99.90
24250;DHT22;12379;49.820;8.648;2023-04-24T06:31:58;12.30;99.90
24250;DHT22;12379;49.820;8.648;2023-04-24T06:34:24;13.20;99.90
24250;DHT22;12379;49.820;8.648;2023-04-24T06:36:50;13.80;99.90
24250;DHT22;12379;49.820;8.648;2023-04-24T06:39:16;13.80;99.90
24250;DHT22;12379;49.820;8.648;2023-04-24T06:41:41;13.90;99.90
24250;DHT22;12379;49.820;8.648;2023-04-24T06:44:07;13.80;99.90
24250;DHT22;12379;49.820;8.648;2023-04-24T06:46:32;14.30;99.90
24250;DHT22;12379;49.820;8.648;2023-04-24T06:48:58;15.10;99.90
24250;DHT22;12379;49.820;8.648;2023-04-24T06:51:24;15.40;99.90
24250;DHT22;12379;49.820;8.648;2023-04-24T06:53:52;15.60;99.90
24250;DHT22;12379;49.820;8.648;2023-04-24T06:56:18;16.10;99.90
24250;DHT22;12379;49.820;8.648;2023-04-24T06:58:43;15.20;99.90
24250;DHT22;12379;49.820;8.648;2023-04-24T07:01:10;14.90;99.90
24250;DHT22;12379;49.820;8.648;2023-04-24T07:03:35;14.90;99.90
24250;DHT22;12379;49.820;8.648;2023-04-24T07:06:01;16.00;99.90
24250;DHT22;12379;49.820;8.648;2023-04-24T07:08:29;17.40;99.90
24250;DHT22;12379;49.820;8.648;2023-04-24T07:10:56;17.40;98.80
24250;DHT22;12379;49.820;8.648;2023-04-24T07:13:22;17.60;98.00
24250;DHT22;12379;49.820;8.648;2023-04-24T07:15:48;18.20;96.50
24250;DHT22;12379;49.820;8.648;2023-04-24T07:18:16;17.10;98.20
24250;DHT22;12379;49.820;8.648;2023-04-24T07:20:42;15.50;99.90
24250;DHT22;12379;49.820;8.648;2023-04-24T07:23:07;14.50;99.90
24250;DHT22;12379;49.820;8.648;2023-04-24T07:25:33;15.40;99.90
24250;DHT22;12379;49.820;8.648;2023-04-24T07:27:59;16.60;99.90
24250;DHT22;12379;49.820;8.648;2023-04-24T07:30:24;16.90;99.20
24250;DHT22;12379;49.820;8.648;2023-04-24T07:32:54;17.00;98.00
24250;DHT22;12379;49.820;8.648;2023-04-24T07:35:20;15.30;99.90
24250;DHT22;12379;49.820;8.648;2023-04-24T07:37:46;13.60;99.90
24250;DHT22;12379;49.820;8.648;2023-04-24T07:40:15;13.00;99.90
24250;DHT22;12379;49.820;8.648;2023-04-24T07:42:41;12.70;99.90
24250;DHT22;12379;49.820;8.648;2023-04-24T07:45:07;12.50;99.90
24250;DHT22;12379;49.820;8.648;2023-04-24T07:47:32;12.80;99.90
24250;DHT22;12379;49.820;8.648;2023-04-24T07:49:59;13.20;99.90
24250;DHT22;12379;49.820;8.648;2023-04-24T07:52:24;13.40;99.90
24250;DHT22;12379;49.820;8.648;2023-04-24T07:54:50;13.20;99.90
24250;DHT22;12379;49.820;8.648;2023-04-24T07:57:16;13.30;99.90
24250;DHT22;12379;49.820;8.648;2023-04-24T07:59:42;13.20;99.90
24250;DHT22;12379;49.820;8.648;2023-04-24T08:02:07;13.10;99.90
24250;DHT22;12379;49.820;8.648;2023-04-24T08:04:33;12.80;99.90
24250;DHT22;12379;49.820;8.648;2023-04-24T08:06:59;12.70;99.90
24250;DHT22;12379;49.820;8.648;2023-04-24T08:09:24;13.00;99.90
24250;DHT22;12379;49.820;8.648;2023-04-24T08:11:50;12.90;99.90
24250;DHT22;12379;49.820;8.648;2023-04-24T08:14:16;12.80;99.90
24250;DHT22;12379;49.820;8.648;2023-04-24T08:16:41;13.50;99.90
24250;DHT22;12379;49.820;8.648;2023-04-24T08:19:07;13.40;99.90
24250;DHT22;12379;49.820;8.648;2023-04-24T08:21:33;13.90;99.90
24250;DHT22;12379;49.820;8.648;2023-04-24T08:23:58;15.60;99.90
24250;DHT22;12379;49.820;8.648;2023-04-24T08:26:24;15.60;99.10
24250;DHT22;12379;49.820;8.648;2023-04-24T08:28:50;14.70;99.10
24250;DHT22;12379;49.820;8.648;2023-04-24T08:31:15;14.10;99.90
24250;DHT22;12379;49.820;8.648;2023-04-24T08:33:41;13.90;99.90
24250;DHT22;12379;49.820;8.648;2023-04-24T08:36:07;13.60;99.90
24250;DHT22;12379;49.820;8.648;2023-04-24T08:38:33;13.50;99.90
24250;DHT22;12379;49.820;8.648;2023-04-24T08:41:00;13.40;99.90
24250;DHT22;12379;49.820;8.648;2023-04-24T08:43:26;13.00;99.90
24250;DHT22;12379;49.820;8.648;2023-04-24T08:45:52;13.80;99.90
24250;DHT22;12379;49.820;8.648;2023-04-24T08:48:20;15.30;98.10
24250;DHT22;12379;49.820;8.648;2023-04-24T08:50:50;16.50;97.40
24250;DHT22;12379;49.820;8.648;2023-04-24T08:53:15;18.70;92.70
24250;DHT22;12379;49.820;8.648;2023-04-24T08:55:43;17.80;90.50
24250;DHT22;12379;49.820;8.648;2023-04-24T08:58:12;16.50;92.70
24250;DHT22;12379;49.820;8.648;2023-04-24T09:00:39;15.10;95.40
24250;DHT22;12379;49.820;8.648;2023-04-24T09:03:05;14.70;97.10
24250;DHT22;12379;49.820;8.648;2023-04-24T09:05:32;14.20;98.00
24250;DHT22;12379;49.820;8.648;2023-04-24T09:07:59;14.00;97.10
24250;DHT22;12379;49.820;8.648;2023-04-24T09:10:27;13.60;98.20
24250;DHT22;12379;49.820;8.648;2023-04-24T09:12:56;13.10;99.50
24250;DHT22;12379;49.820;8.648;2023-04-24T09:15:24;13.10;99.90
24250;DHT22;12379;49.820;8.648;2023-04-24T09:17:50;13.30;99.90
24250;DHT22;12379;49.820;8.648;2023-04-24T09:20:16;13.00;99.90
24250;DHT22;12379;49.820;8.648;2023-04-24T09:22:43;13.00;99.90
24250;DHT22;12379;49.820;8.648;2023-04-24T09:25:10;13.10;99.90
24250;DHT22;12379;49.820;8.648;2023-04-24T09:27:42;13.10;99.90
24250;DHT22;12379;49.820;8.648;2023-04-24T09:30:09;13.20;99.90
24250;DHT22;12379;49.820;8.648;2023-04-24T09:32:35;13.20;99.90
24250;DHT22;12379;49.820;8.648;2023-04-24T09:35:08;13.00;99.90
24250;DHT22;12379;49.820;8.648;2023-04-24T09:37:38;13.00;99.90
24250;DHT22;12379;49.820;8.648;2023-04-24T09:40:12;12.80;99.90
24250;DHT22;12379;49.820;8.648;2023-04-24T09:42:39;12.70;99.90
24250;DHT22;12379;49.820;8.648;2023-04-24T09:45:14;12.60;99.90
24250;DHT22;12379;49.820;8.648;2023-04-24T09:47:40;12.60;99.90
24250;DHT22;12379;49.820;8.648;2023-04-24T09:50:14;12.40;99.90
24250;DHT22;12379;49.820;8.648;2023-04-24T09:52:46;12.60;99.90
24250;DHT22;12379;49.820;8.648;2023-04-24T09:55:20;12.50;99.90
24250;DHT22;12379;49.820;8.648;2023-04-24T10:00:28;12.70;99.90
24250;DHT22;12379;49.820;8.648;2023-04-24T10:03:01;12.90;99.90
24250;DHT22;12379;49.820;8.648;2023-04-24T10:05:35;12.80;99.90
24250;DHT22;12379;49.820;8.648;2023-04-24T10:08:11;12.90;99.90
24250;DHT22;12379;49.820;8.648;2023-04-24T10:10:44;13.30;99.90
24250;DHT22;12379;49.820;8.648;2023-04-24T10:13:11;13.30;99.90
24250;DHT22;12379;49.820;8.648;2023-04-24T10:15:37;13.30;99.90
24250;DHT22;12379;49.820;8.648;2023-04-24T10:18:04;13.40;99.90
24250;DHT22;12379;49.820;8.648;2023-04-24T10:20:32;13.30;99.90
24250;DHT22;12379;49.820;8.648;2023-04-24T10:22:59;13.00;99.90
24250;DHT22;12379;49.820;8.648;2023-04-24T10:25:29;12.70;99.90
24250;DHT22;12379;49.820;8.648;2023-04-24T10:27:56;12.70;99.90
24250;DHT22;12379;49.820;8.648;2023-04-24T10:30:23;12.70;99.90
24250;DHT22;12379;49.820;8.648;2023-04-24T10:32:49;12.60;99.90
24250;DHT22;12379;49.820;8.648;2023-04-24T10:35:15;12.70;99.90
24250;DHT22;12379;49.820;8.648;2023-04-24T10:37:49;12.60;99.90
24250;DHT22;12379;49.820;8.648;2023-04-24T10:40:30;12.30;99.90
24250;DHT22;12379;49.820;8.648;2023-04-24T10:42:56;12.30;99.90
24250;DHT22;12379;49.820;8.648;2023-04-24T10:45:23;12.30;99.90
24250;DHT22;12379;49.820;8.648;2023-04-24T10:47:59;12.60;99.90
24250;DHT22;12379;49.820;8.648;2023-04-24T10:50:27;12.80;99.90
24250;DHT22;12379;49.820;8.648;2023-04-24T10:52:53;12.90;99.90
24250;DHT22;12379;49.820;8.648;2023-04-24T10:55:41;13.20;99.90
24250;DHT22;12379;49.820;8.648;2023-04-24T10:58:08;13.60;99.90
24250;DHT22;12379;49.820;8.648;2023-04-24T11:00:39;13.80;99.90
24250;DHT22;12379;49.820;8.648;2023-04-24T11:03:22;14.00;99.90
24250;DHT22;12379;49.820;8.648;2023-04-24T11:06:06;14.10;99.90
24250;DHT22;12379;49.820;8.648;2023-04-24T11:08:38;13.70;99.90
24250;DHT22;12379;49.820;8.648;2023-04-24T11:11:13;13.80;99.90
24250;DHT22;12379;49.820;8.648;2023-04-24T11:19:24;13.10;99.90
24250;DHT22;12379;49.820;8.648;2023-04-24T11:21:57;12.60;99.90
24250;DHT22;12379;49.820;8.648;2023-04-24T11:29:48;12.50;99.90
24250;DHT22;12379;49.820;8.648;2023-04-24T11:32:40;12.50;99.90
24250;DHT22;12379;49.820;8.648;2023-04-24T11:35:21;12.50;99.90
24250;DHT22;12379;49.820;8.648;2023-04-24T11:37:52;12.50;99.90
24250;DHT22;12379;49.820;8.648;2023-04-24T11:40:21;12.50;99.90
24250;DHT22;12379;49.820;8.648;2023-04-24T11:42:52;12.30;99.90
24250;DHT22;12379;49.820;8.648;2023-04-24T11:45:22;12.40;99.90
24250;DHT22;12379;49.820;8.648;2023-04-24T11:47:47;12.40;99.90
24250;DHT22;12379;49.820;8.648;2023-04-24T11:50:18;12.40;99.90
24250;DHT22;12379;49.820;8.648;2023-04-24T11:52:48;12.50;99.90
24250;DHT22;12379;49.820;8.648;2023-04-24T11:57:42;12.60;99.90
24250;DHT22;12379;49.820;8.648;2023-04-24T12:00:15;12.60;99.90
24250;DHT22;12379;49.820;8.648;2023-04-24T12:02:42;12.60;99.90
24250;DHT22;12379;49.820;8.648;2023-04-24T12:05:08;12.60;99.90
24250;DHT22;12379;49.820;8.648;2023-04-24T12:07:41;12.50;99.90
24250;DHT22;12379;49.820;8.648;2023-04-24T12:10:10;12.40;99.90
24250;DHT22;12379;49.820;8.648;2023-04-24T12:12:36;11.90;99.90
24250;DHT22;12379;49.820;8.648;2023-04-24T12:15:06;11.50;99.90
24250;DHT22;12379;49.820;8.648;2023-04-24T12:17:34;11.30;99.90
24250;DHT22;12379;49.820;8.648;2023-04-24T12:20:00;11.10;99.90
24250;DHT22;12379;49.820;8.648;2023-04-24T12:22:26;11.10;99.90
24250;DHT22;12379;49.820;8.648;2023-04-24T12:25:03;11.10;99.90
24250;DHT22;12379;49.820;8.648;2023-04-24T12:27:33;11.50;99.90
24250;DHT22;12379;49.820;8.648;2023-04-24T12:30:01;11.80;99.90
24250;DHT22;12379;49.820;8.648;2023-04-24T12:32:27;12.00;99.90
24250;DHT22;12379;49.820;8.648;2023-04-24T12:34:54;11.90;99.90
24250;DHT22;12379;49.820;8.648;2023-04-24T12:37:20;12.00;99.90
24250;DHT22;12379;49.820;8.648;2023-04-24T12:42:34;12.30;99.90
24250;DHT22;12379;49.820;8.648;2023-04-24T12:45:05;12.50;99.90
24250;DHT22;12379;49.820;8.648;2023-04-24T12:47:32;12.50;99.90
24250;DHT22;12379;49.820;8.648;2023-04-24T12:49:58;12.60;99.90
24250;DHT22;12379;49.820;8.648;2023-04-24T12:52:25;12.80;99.90
24250;DHT22;12379;49.820;8.648;2023-04-24T12:54:55;13.10;99.90
24250;DHT22;12379;49.820;8.648;2023-04-24T12:57:22;13.30;99.90
24250;DHT22;12379;49.820;8.648;2023-04-24T12:59:48;13.70;99.90
24250;DHT22;12379;49.820;8.648;2023-04-24T13:02:14;13.90;99.90
24250;DHT22;12379;49.820;8.648;2023-04-24T13:04:48;14.00;99.90
24250;DHT22;12379;49.820;8.648;2023-04-24T13:07:14;14.10;99.90
24250;DHT22;12379;49.820;8.648;2023-04-24T13:09:41;14.00;99.90
24250;DHT22;12379;49.820;8.648;2023-04-24T13:12:07;14.20;99.90
24250;DHT22;12379;49.820;8.648;2023-04-24T13:14:34;14.00;99.90
24250;DHT22;12379;49.820;8.648;2023-04-24T13:17:00;14.10;99.90
24250;DHT22;12379;49.820;8.648;2023-04-24T13:19:26;14.10;99.90
24250;DHT22;12379;49.820;8.648;2023-04-24T13:21:54;14.20;99.90
24250;DHT22;12379;49.820;8.648;2023-04-24T13:24:21;14.50;99.90
24250;DHT22;12379;49.820;8.648;2023-04-24T13:26:50;15.00;99.90
24250;DHT22;12379;49.820;8.648;2023-04-24T13:29:16;15.60;99.30
24250;DHT22;12379;49.820;8.648;2023-04-24T13:31:41;15.60;97.90
24250;DHT22;12379;49.820;8.648;2023-04-24T13:34:07;16.00;96.80
24250;DHT22;12379;49.820;8.648;2023-04-24T13:36:32;15.50;96.50
24250;DHT22;12379;49.820;8.648;2023-04-24T13:38:58;15.30;97.00
24250;DHT22;12379;49.820;8.648;2023-04-24T13:41:24;15.10;97.50
24250;DHT22;12379;49.820;8.648;2023-04-24T13:43:50;14.70;98.70
24250;DHT22;12379;49.820;8.648;2023-04-24T13:46:16;14.40;99.00
24250;DHT22;12379;49.820;8.648;2023-04-24T13:48:42;14.20;99.60
24250;DHT22;12379;49.820;8.648;2023-04-24T13:51:07;14.40;99.90
24250;DHT22;12379;49.820;8.648;2023-04-24T13:53:33;14.40;99.40
24250;DHT22;12379;49.820;8.648;2023-04-24T13:56:01;14.40;99.20
24250;DHT22;12379;49.820;8.648;2023-04-24T13:58:27;14.40;99.70
24250;DHT22;12379;49.820;8.648;2023-04-24T14:00:53;14.60;99.40
24250;DHT22;12379;49.820;8.648;2023-04-24T14:03:18;14.80;98.70
24250;DHT22;12379;49.820;8.648;2023-04-24T14:05:44;14.70;97.90
24250;DHT22;12379;49.820;8.648;2023-04-24T14:08:09;14.40;98.00
24250;DHT22;12379;49.820;8.648;2023-04-24T14:10:35;14.30;99.20
24250;DHT22;12379;49.820;8.648;2023-04-24T14:13:01;14.40;99.40
24250;DHT22;12379;49.820;8.648;2023-04-24T14:15:26;14.50;98.70
24250;DHT22;12379;49.820;8.648;2023-04-24T14:17:55;14.40;98.80
24250;DHT22;12379;49.820;8.648;2023-04-24T14:20:20;14.30;98.00
24250;DHT22;12379;49.820;8.648;2023-04-24T14:22:46;14.40;97.90
24250;DHT22;12379;49.820;8.648;2023-04-24T14:25:12;14.30;97.50
24250;DHT22;12379;49.820;8.648;2023-04-24T14:27:37;14.10;97.90
24250;DHT22;12379;49.820;8.648;2023-04-24T14:30:04;14.10;98.30
24250;DHT22;12379;49.820;8.648;2023-04-24T14:32:32;14.30;98.60
24250;DHT22;12379;49.820;8.648;2023-04-24T14:34:57;14.40;98.20
24250;DHT22;12379;49.820;8.648;2023-04-24T14:37:23;14.30;98.40
24250;DHT22;12379;49.820;8.648;2023-04-24T14:39:49;14.00;99.00
24250;DHT22;12379;49.820;8.648;2023-04-24T14:42:14;13.90;99.50
24250;DHT22;12379;49.820;8.648;2023-04-24T14:44:42;13.90;99.60
24250;DHT22;12379;49.820;8.648;2023-04-24T14:47:10;14.00;99.70
24250;DHT22;12379;49.820;8.648;2023-04-24T14:49:36;14.00;99.80
24250;DHT22;12379;49.820;8.648;2023-04-24T14:52:02;13.90;99.80
24250;DHT22;12379;49.820;8.648;2023-04-24T14:54:28;13.90;99.80
24250;DHT22;12379;49.820;8.648;2023-04-24T14:56:54;13.90;99.10
24250;DHT22;12379;49.820;8.648;2023-04-24T14:59:22;14.00;98.40
24250;DHT22;12379;49.820;8.648;2023-04-24T15:01:47;13.70;98.10
24250;DHT22;12379;49.820;8.648;2023-04-24T15:04:14;13.50;98.30
24250;DHT22;12379;49.820;8.648;2023-04-24T15:06:40;13.50;98.10
24250;DHT22;12379;49.820;8.648;2023-04-24T15:09:06;13.40;98.60
24250;DHT22;12379;49.820;8.648;2023-04-24T15:11:32;13.50;98.60
24250;DHT22;12379;49.820;8.648;2023-04-24T15:13:57;13.40;98.60
24250;DHT22;12379;49.820;8.648;2023-04-24T15:16:23;13.30;98.60
24250;DHT22;12379;49.820;8.648;2023-04-24T15:18:49;13.40;98.50
24250;DHT22;12379;49.820;8.648;2023-04-24T15:21:15;13.40;98.60
24250;DHT22;12379;49.820;8.648;2023-04-24T15:23:40;13.40;99.00
24250;DHT22;12379;49.820;8.648;2023-04-24T15:26:06;13.30;99.30
24250;DHT22;12379;49.820;8.648;2023-04-24T15:28:31;13.30;99.60
24250;DHT22;12379;49.820;8.648;2023-04-24T15:30:57;13.40;99.70
24250;DHT22;12379;49.820;8.648;2023-04-24T15:33:23;13.60;99.90
24250;DHT22;12379;49.820;8.648;2023-04-24T15:35:48;13.70;99.90
24250;DHT22;12379;49.820;8.648;2023-04-24T15:38:14;13.90;99.00
24250;DHT22;12379;49.820;8.648;2023-04-24T15:40:40;14.10;98.20
24250;DHT22;12379;49.820;8.648;2023-04-24T15:43:05;14.10;97.10
24250;DHT22;12379;49.820;8.648;2023-04-24T15:45:32;14.10;97.10